createdAt,value
2023-03-29T00:01:00.175Z,97634.91
2023-03-29T00:03:27.730Z,97658.31
2023-03-29T00:06:03.266Z,97657.50
2023-03-29T00:08:31.595Z,97661.50
2023-03-29T00:10:59.477Z,97671.03
2023-03-29T00:13:27.320Z,97673.44
2023-03-29T00:15:55.325Z,97677.38
2023-03-29T00:18:22.996Z,97679.75
2023-03-29T00:20:57.065Z,97681.75
2023-03-29T00:23:25.087Z,97688.47
2023-03-29T00:25:55.837Z,97671.03
2023-03-29T00:28:23.038Z,97676.16
2023-03-29T00:30:52.715Z,97683.72
2023-03-29T00:33:22.995Z,97681.31
2023-03-29T00:35:53.352Z,97674.94
2023-03-29T00:38:20.030Z,97671.75
2023-03-29T00:40:47.472Z,97667.03
2023-03-29T00:43:14.757Z,97674.97
2023-03-29T00:45:42.229Z,97672.59
2023-03-29T00:48:16.531Z,97656.78
2023-03-29T00:51:04.061Z,97672.63
2023-03-29T00:53:38.533Z,97673.44
2023-03-29T00:56:19.966Z,97667.91
2023-03-29T00:59:04.924Z,97669.88
2023-03-29T01:01:42.160Z,97673.44
2023-03-29T01:04:18.603Z,97665.50
2023-03-29T01:06:57.235Z,97656.00
2023-03-29T01:09:27.207Z,97661.56
2023-03-29T01:11:57.645Z,97667.91
2023-03-29T01:14:35.834Z,97661.56
2023-03-29T01:17:02.478Z,97662.75
2023-03-29T01:19:34.446Z,97666.31
2023-03-29T01:22:15.651Z,97661.56
2023-03-29T01:25:14.647Z,97669.50
2023-03-29T01:27:53.373Z,97675.06
2023-03-29T01:30:29.045Z,97675.06
2023-03-29T01:33:02.851Z,97676.66
2023-03-29T01:35:40.333Z,97681.41
2023-03-29T01:38:16.225Z,97668.75
2023-03-29T01:40:42.796Z,97685.38
2023-03-29T01:43:12.406Z,97676.66
2023-03-29T01:45:47.545Z,97681.41
2023-03-29T01:48:24.766Z,97689.34
2023-03-29T01:50:58.471Z,97687.75
2023-03-29T01:53:49.671Z,97687.38
2023-03-29T01:56:26.531Z,97683.00
2023-03-29T01:58:58.254Z,97694.06
2023-03-29T02:01:30.037Z,97694.09
2023-03-29T02:04:02.828Z,97686.97
2023-03-29T02:06:32.966Z,97681.44
2023-03-29T02:09:00.171Z,97701.22
2023-03-29T02:11:29.288Z,97696.47
2023-03-29T02:13:57.331Z,97695.28
2023-03-29T02:16:23.903Z,97705.59
2023-03-29T02:18:53.032Z,97702.81
2023-03-29T02:21:37.331Z,97725.78
2023-03-29T02:24:07.589Z,97703.59
2023-03-29T02:26:34.635Z,97719.03
2023-03-29T02:29:01.505Z,97721.81
2023-03-29T02:31:43.815Z,97729.75
2023-03-29T02:34:26.840Z,97737.66
2023-03-29T02:37:03.108Z,97738.47
2023-03-29T02:39:32.408Z,97712.69
2023-03-29T02:41:59.623Z,97742.44
2023-03-29T02:44:29.829Z,97737.66
2023-03-29T02:47:22.093Z,97736.09
2023-03-29T02:49:48.887Z,97749.16
2023-03-29T02:52:19.465Z,97747.19
2023-03-29T02:54:48.571Z,97750.38
2023-03-29T02:57:15.186Z,97751.16
2023-03-29T02:59:44.213Z,97754.34
2023-03-29T03:02:11.854Z,97744.81
2023-03-29T03:04:38.495Z,97760.66
2023-03-29T03:07:05.439Z,97770.56
2023-03-29T03:09:32.055Z,97744.81
2023-03-29T03:11:58.623Z,97766.19
2023-03-29T03:14:25.406Z,97776.53
2023-03-29T03:16:52.870Z,97776.50
2023-03-29T03:19:19.908Z,97782.88
2023-03-29T03:21:47.072Z,97778.88
2023-03-29T03:24:13.774Z,97777.28
2023-03-29T03:26:40.349Z,97773.38
2023-03-29T03:29:06.969Z,97788.41
2023-03-29T03:31:33.728Z,97788.41
2023-03-29T03:34:00.421Z,97770.19
2023-03-29T03:36:29.069Z,97789.97
2023-03-29T03:38:55.723Z,97791.97
2023-03-29T03:41:22.718Z,97795.91
2023-03-29T03:43:49.639Z,97802.28
2023-03-29T03:46:17.230Z,97811.41
2023-03-29T03:48:47.137Z,97814.56
2023-03-29T03:51:14.113Z,97807.41
2023-03-29T03:53:41.078Z,97810.59
2023-03-29T03:56:10.930Z,97809.00
2023-03-29T03:58:38.119Z,97806.25
2023-03-29T04:01:06.069Z,97813.75
2023-03-29T04:03:32.716Z,97814.53
2023-03-29T04:06:01.250Z,97812.97
2023-03-29T04:08:28.009Z,97812.19
2023-03-29T04:10:56.255Z,97805.44
2023-03-29T04:13:23.636Z,97806.63
2023-03-29T04:15:54.133Z,97815.34
2023-03-29T04:18:21.570Z,97812.97
2023-03-29T04:20:48.841Z,97827.22
2023-03-29T04:23:16.028Z,97830.41
2023-03-29T04:25:42.676Z,97836.34
2023-03-29T04:28:10.926Z,97828.84
2023-03-29T04:30:37.551Z,97838.31
2023-03-29T04:33:04.301Z,97834.34
2023-03-29T04:35:30.941Z,97830.38
2023-03-29T04:37:57.556Z,97839.50
2023-03-29T04:40:24.159Z,97842.69
2023-03-29T04:42:51.740Z,97845.81
2023-03-29T04:45:18.600Z,97841.06
2023-03-29T04:47:46.230Z,97836.72
2023-03-29T04:50:13.905Z,97838.31
2023-03-29T04:52:41.007Z,97830.38
2023-03-29T04:55:08.262Z,97838.31
2023-03-29T04:57:34.920Z,97851.81
2023-03-29T05:00:01.601Z,97860.56
2023-03-29T05:02:30.988Z,97863.72
2023-03-29T05:04:57.648Z,97860.56
2023-03-29T05:07:24.657Z,97861.34
2023-03-29T05:09:51.276Z,97871.69
2023-03-29T05:12:17.792Z,97860.19
2023-03-29T05:14:44.427Z,97861.38
2023-03-29T05:17:11.003Z,97859.78
2023-03-29T05:19:38.414Z,97868.50
2023-03-29T05:22:05.010Z,97867.72
2023-03-29T05:24:31.748Z,97854.63
2023-03-29T05:26:58.377Z,97870.50
2023-03-29T05:29:24.989Z,97855.81
2023-03-29T05:31:52.576Z,97875.63
2023-03-29T05:34:20.058Z,97862.94
2023-03-29T05:36:46.602Z,97876.06
2023-03-29T05:39:13.528Z,97878.00
2023-03-29T05:41:40.472Z,97882.38
2023-03-29T05:44:07.345Z,97885.97
2023-03-29T05:46:34.289Z,97880.38
2023-03-29T05:49:01.720Z,97892.28
2023-03-29T05:51:28.403Z,97891.13
2023-03-29T05:53:54.936Z,97888.34
2023-03-29T05:56:22.512Z,97895.06
2023-03-29T05:58:49.530Z,97896.66
2023-03-29T06:01:17.963Z,97895.47
2023-03-29T06:03:46.259Z,97904.59
2023-03-29T06:06:16.562Z,97905.81
2023-03-29T06:08:44.528Z,97916.13
2023-03-29T06:11:13.256Z,97910.53
2023-03-29T06:13:42.197Z,97922.44
2023-03-29T06:16:10.432Z,97925.63
2023-03-29T06:18:39.748Z,97932.38
2023-03-29T06:21:07.997Z,97934.38
2023-03-29T06:23:34.926Z,97943.09
2023-03-29T06:26:01.766Z,97941.13
2023-03-29T06:28:28.679Z,97950.63
2023-03-29T06:30:56.661Z,97949.06
2023-03-29T06:33:25.278Z,97946.28
2023-03-29T06:35:51.912Z,97943.50
2023-03-29T06:38:24.710Z,97949.44
2023-03-29T06:40:52.761Z,97942.31
2023-03-29T06:43:19.341Z,97944.66
2023-03-29T06:45:45.866Z,97928.00
2023-03-29T06:48:12.578Z,97947.06
2023-03-29T06:50:39.093Z,97946.66
2023-03-29T06:53:05.701Z,97943.88
2023-03-29T06:55:32.393Z,97950.22
2023-03-29T06:58:02.205Z,97948.19
2023-03-29T07:00:29.907Z,97944.59
2023-03-29T07:02:58.727Z,97955.72
2023-03-29T07:05:28.282Z,97949.41
2023-03-29T07:07:56.729Z,97949.38
2023-03-29T07:10:32.147Z,97947.78
2023-03-29T07:13:02.708Z,97946.94
2023-03-29T07:15:29.559Z,97944.94
2023-03-29T07:17:57.503Z,97939.75
2023-03-29T07:20:25.254Z,97937.38
2023-03-29T07:22:51.885Z,97932.59
2023-03-29T07:25:19.857Z,97942.16
2023-03-29T07:27:46.524Z,97941.38
2023-03-29T07:30:19.084Z,97937.41
2023-03-29T07:32:46.761Z,97935.03
2023-03-29T07:35:14.958Z,97933.47
2023-03-29T07:37:42.973Z,97942.97
2023-03-29T07:40:16.094Z,97939.03
2023-03-29T07:42:44.012Z,97937.38
2023-03-29T07:45:11.477Z,97938.16
2023-03-29T07:47:38.459Z,97929.38
2023-03-29T07:50:07.438Z,97927.78
2023-03-29T07:52:36.506Z,97930.16
2023-03-29T07:55:03.056Z,97932.16
2023-03-29T07:57:29.683Z,97933.38
2023-03-29T07:59:56.364Z,97930.16
2023-03-29T08:02:22.911Z,97918.19
2023-03-29T08:04:49.885Z,97919.78
2023-03-29T08:07:19.910Z,97916.66
2023-03-29T08:09:46.721Z,97905.53
2023-03-29T08:12:13.280Z,97900.34
2023-03-29T08:14:39.885Z,97895.50
2023-03-29T08:17:06.543Z,97900.66
2023-03-29T08:19:33.149Z,97897.81
2023-03-29T08:22:00.699Z,97893.47
2023-03-29T08:24:27.334Z,97884.75
2023-03-29T08:26:54.012Z,97889.34
2023-03-29T08:29:20.707Z,97870.44
2023-03-29T08:31:47.239Z,97897.94
2023-03-29T08:34:14.290Z,97877.47
2023-03-29T08:36:41.369Z,97868.59
2023-03-29T08:39:08.013Z,97851.44
2023-03-29T08:41:52.918Z,97880.75
2023-03-29T08:44:22.511Z,97873.59
2023-03-29T08:47:10.607Z,97865.16
2023-03-29T08:49:39.788Z,97841.84
2023-03-29T08:52:19.768Z,97854.78
2023-03-29T08:54:48.737Z,97850.75
2023-03-29T08:57:28.148Z,97854.97
2023-03-29T08:59:57.435Z,97849.97
2023-03-29T09:02:30.584Z,97848.13
2023-03-29T09:05:06.044Z,97856.84
2023-03-29T09:07:32.691Z,97833.13
2023-03-29T09:09:59.575Z,97836.63
2023-03-29T09:12:37.956Z,97838.00
2023-03-29T09:15:11.686Z,97837.88
2023-03-29T09:18:00.081Z,97833.38
2023-03-29T09:20:55.825Z,97826.09
2023-03-29T09:23:53.197Z,97821.44
2023-03-29T09:26:24.138Z,97824.38
2023-03-29T09:29:00.506Z,97822.53
2023-03-29T09:31:35.303Z,97811.59
2023-03-29T09:34:13.679Z,97831.03
2023-03-29T09:36:53.372Z,97826.19
2023-03-29T09:39:21.284Z,97828.66
2023-03-29T09:41:53.853Z,97803.28
2023-03-29T09:44:30.777Z,97826.59
2023-03-29T09:47:38.151Z,97822.34
2023-03-29T09:50:27.216Z,97822.19
2023-03-29T09:52:57.344Z,97809.75
2023-03-29T09:55:28.711Z,97811.91
2023-03-29T09:58:00.696Z,97819.25
2023-03-29T10:00:27.372Z,97834.66
2023-03-29T10:02:57.195Z,97817.81
2023-03-29T10:05:25.994Z,97819.00
2023-03-29T10:07:57.693Z,97825.16
2023-03-29T10:10:35.043Z,97816.53
2023-03-29T10:13:06.018Z,97792.25
2023-03-29T10:15:32.908Z,97804.72
2023-03-29T10:18:03.396Z,97811.66
2023-03-29T10:20:30.175Z,97795.00
2023-03-29T10:22:59.133Z,97769.72
2023-03-29T10:25:31.818Z,97785.72
2023-03-29T10:28:08.408Z,97765.25
2023-03-29T10:30:38.242Z,97778.13
2023-03-29T10:33:07.484Z,97779.41
2023-03-29T10:35:44.333Z,97741.06
2023-03-29T10:38:17.464Z,97748.91
2023-03-29T10:40:49.891Z,97754.75
2023-03-29T10:43:29.794Z,97755.47
2023-03-29T10:46:08.095Z,97749.38
2023-03-29T10:48:36.134Z,97751.84
2023-03-29T10:51:05.608Z,97753.00
2023-03-29T10:53:34.984Z,97730.50
2023-03-29T10:56:20.323Z,97736.28
2023-03-29T10:59:24.419Z,97745.91
2023-03-29T11:02:14.197Z,97737.94
2023-03-29T11:05:00.289Z,97735.00
2023-03-29T11:07:33.460Z,97736.13
2023-03-29T11:10:18.217Z,97729.19
2023-03-29T11:12:50.062Z,97736.94
2023-03-29T11:15:38.497Z,97726.09
2023-03-29T11:18:27.661Z,97727.47
2023-03-29T11:21:25.142Z,97714.56
2023-03-29T11:23:57.914Z,97719.94
2023-03-29T11:26:36.810Z,97722.53
2023-03-29T11:29:16.223Z,97714.56
2023-03-29T11:32:05.486Z,97717.81
2023-03-29T11:34:49.590Z,97721.09
2023-03-29T11:37:28.237Z,97702.97
2023-03-29T11:40:05.676Z,97715.75
2023-03-29T11:42:35.999Z,97709.94
2023-03-29T11:45:05.060Z,97710.28
2023-03-29T11:47:41.132Z,97707.88
2023-03-29T11:50:15.538Z,97706.53
2023-03-29T11:53:02.070Z,97709.78
2023-03-29T11:55:34.647Z,97701.13
2023-03-29T11:58:12.165Z,97715.06
2023-03-29T12:00:48.192Z,97698.66
2023-03-29T12:03:28.478Z,97717.41
2023-03-29T12:06:07.903Z,97707.97
2023-03-29T12:08:48.117Z,97710.22
2023-03-29T12:11:27.399Z,97704.03
2023-03-29T12:13:56.387Z,97697.38
2023-03-29T12:16:40.762Z,97690.22
2023-03-29T12:19:30.405Z,97688.56
2023-03-29T12:21:59.501Z,97690.50
2023-03-29T12:24:30.701Z,97695.88
2023-03-29T12:27:20.686Z,97685.66
2023-03-29T12:30:12.571Z,97695.22
2023-03-29T12:33:10.172Z,97699.69
2023-03-29T12:35:49.748Z,97674.97
2023-03-29T12:38:16.211Z,97707.91
2023-03-29T12:40:46.368Z,97679.47
2023-03-29T12:43:24.132Z,97693.41
2023-03-29T12:45:57.189Z,97702.28
2023-03-29T12:48:27.241Z,97694.91
2023-03-29T12:51:01.081Z,97710.03
2023-03-29T12:53:37.078Z,97704.88
2023-03-29T12:56:08.172Z,97707.88
2023-03-29T12:58:53.472Z,97705.44
2023-03-29T13:01:27.151Z,97696.13
2023-03-29T13:04:13.865Z,97693.28
2023-03-29T13:06:46.681Z,97696.91
2023-03-29T13:09:28.446Z,97684.16
2023-03-29T13:11:58.642Z,97695.03
2023-03-29T13:14:30.247Z,97674.66
2023-03-29T13:17:17.728Z,97688.31
2023-03-29T13:19:58.665Z,97685.31
2023-03-29T13:22:37.016Z,97681.38
2023-03-29T13:25:24.426Z,97673.63
2023-03-29T13:28:03.355Z,97685.53
2023-03-29T13:30:55.274Z,97682.84
2023-03-29T13:33:21.879Z,97678.59
2023-03-29T13:36:05.817Z,97678.44
2023-03-29T13:38:45.524Z,97672.97
2023-03-29T13:41:44.866Z,97675.97
2023-03-29T13:44:23.734Z,97674.97
2023-03-29T13:47:03.140Z,97680.59
2023-03-29T13:49:32.651Z,97666.97
2023-03-29T13:52:13.281Z,97679.03
2023-03-29T13:54:48.121Z,97655.75
2023-03-29T13:57:19.365Z,97687.53
2023-03-29T14:00:01.355Z,97674.84
2023-03-29T14:02:32.703Z,97669.00
2023-03-29T14:05:02.100Z,97672.81
2023-03-29T14:07:33.404Z,97672.28
2023-03-29T14:10:01.298Z,97664.38
2023-03-29T14:12:36.023Z,97672.50
2023-03-29T14:15:06.233Z,97675.97
2023-03-29T14:17:33.710Z,97679.72
2023-03-29T14:20:00.970Z,97668.66
2023-03-29T14:22:33.837Z,97673.81
2023-03-29T14:25:13.260Z,97688.34
2023-03-29T14:27:41.758Z,97688.13
2023-03-29T14:30:27.577Z,97682.19
2023-03-29T14:32:54.721Z,97663.28
2023-03-29T14:35:29.646Z,97688.47
2023-03-29T14:37:56.612Z,97676.31
2023-03-29T14:40:23.718Z,97689.81
2023-03-29T14:42:51.290Z,97687.34
2023-03-29T14:45:23.271Z,97690.94
2023-03-29T14:47:50.897Z,97678.91
2023-03-29T14:50:21.360Z,97685.09
2023-03-29T14:52:52.291Z,97675.19
2023-03-29T14:55:23.662Z,97692.97
2023-03-29T14:57:53.285Z,97681.81
2023-03-29T15:00:26.910Z,97678.13
2023-03-29T15:02:54.894Z,97685.56
2023-03-29T15:05:34.410Z,97691.72
2023-03-29T15:08:02.907Z,97683.63
2023-03-29T15:10:33.404Z,97691.81
2023-03-29T15:13:02.680Z,97687.22
2023-03-29T15:15:32.939Z,97674.63
2023-03-29T15:18:00.937Z,97692.94
2023-03-29T15:20:29.154Z,97703.72
2023-03-29T15:23:07.706Z,97695.31
2023-03-29T15:25:39.347Z,97705.31
2023-03-29T15:28:06.405Z,97707.78
2023-03-29T15:30:39.127Z,97706.66
2023-03-29T15:33:19.370Z,97705.47
2023-03-29T15:35:50.465Z,97696.03
2023-03-29T15:38:17.841Z,97687.13
2023-03-29T15:40:44.580Z,97701.44
2023-03-29T15:43:12.000Z,97712.13
2023-03-29T15:45:38.549Z,97707.72
2023-03-29T15:48:23.581Z,97704.13
2023-03-29T15:50:50.577Z,97697.81
2023-03-29T15:53:18.304Z,97697.34
2023-03-29T15:55:48.036Z,97712.59
2023-03-29T15:58:16.894Z,97708.16
2023-03-29T16:00:48.269Z,97710.03
2023-03-29T16:03:16.154Z,97710.72
2023-03-29T16:05:43.993Z,97710.94
2023-03-29T16:08:12.966Z,97707.56
2023-03-29T16:10:41.502Z,97718.72
2023-03-29T16:13:09.861Z,97720.25
2023-03-29T16:15:36.877Z,97716.31
2023-03-29T16:18:03.821Z,97718.78
2023-03-29T16:20:30.495Z,97721.25
2023-03-29T16:22:57.070Z,97726.16
2023-03-29T16:25:24.279Z,97723.91
2023-03-29T16:27:52.567Z,97727.06
2023-03-29T16:30:19.928Z,97732.16
2023-03-29T16:32:46.797Z,97733.72
2023-03-29T16:35:32.144Z,97730.06
2023-03-29T16:37:59.001Z,97727.06
2023-03-29T16:40:26.014Z,97735.03
2023-03-29T16:42:52.622Z,97730.75
2023-03-29T16:45:20.304Z,97742.81
2023-03-29T16:47:47.198Z,97748.44
2023-03-29T16:50:16.502Z,97744.56
2023-03-29T16:52:43.233Z,97751.06
2023-03-29T16:55:12.360Z,97745.81
2023-03-29T16:57:40.171Z,97747.53
2023-03-29T17:00:15.927Z,97741.78
2023-03-29T17:02:43.736Z,97753.84
2023-03-29T17:05:11.944Z,97753.78
2023-03-29T17:07:39.618Z,97751.31
2023-03-29T17:10:08.336Z,97760.69
2023-03-29T17:12:35.492Z,97754.72
2023-03-29T17:15:02.718Z,97755.44
2023-03-29T17:17:29.402Z,97762.78
2023-03-29T17:19:56.708Z,97769.59
2023-03-29T17:22:24.273Z,97771.53
2023-03-29T17:24:51.297Z,97765.47
2023-03-29T17:27:18.827Z,97773.25
2023-03-29T17:29:45.438Z,97774.91
2023-03-29T17:32:11.972Z,97777.06
2023-03-29T17:34:38.953Z,97782.41
2023-03-29T17:37:05.636Z,97780.91
2023-03-29T17:39:33.161Z,97789.09
2023-03-29T17:41:59.817Z,97795.63
2023-03-29T17:44:26.992Z,97801.44
2023-03-29T17:46:53.715Z,97791.97
2023-03-29T17:49:20.767Z,97801.25
2023-03-29T17:51:47.343Z,97797.72
2023-03-29T17:54:13.933Z,97801.72
2023-03-29T17:56:40.914Z,97801.50
2023-03-29T17:59:07.730Z,97809.69
2023-03-29T18:01:37.006Z,97813.59
2023-03-29T18:04:05.232Z,97814.94
2023-03-29T18:06:32.205Z,97815.50
2023-03-29T18:09:01.418Z,97817.16
2023-03-29T18:11:29.526Z,97825.25
2023-03-29T18:13:59.904Z,97831.81
2023-03-29T18:16:26.814Z,97828.38
2023-03-29T18:18:53.437Z,97832.94
2023-03-29T18:21:21.040Z,97838.19
2023-03-29T18:23:49.356Z,97837.94
2023-03-29T18:26:17.323Z,97834.78
2023-03-29T18:28:48.209Z,97836.44
2023-03-29T18:31:15.632Z,97844.06
2023-03-29T18:33:42.714Z,97815.06
2023-03-29T18:36:12.927Z,97842.78
2023-03-29T18:38:43.427Z,97846.06
2023-03-29T18:41:12.652Z,97826.59
2023-03-29T18:43:41.210Z,97840.91
2023-03-29T18:46:08.241Z,97842.91
2023-03-29T18:48:41.879Z,97837.78
2023-03-29T18:51:10.464Z,97844.59
2023-03-29T18:53:38.776Z,97843.25
2023-03-29T18:56:06.534Z,97851.63
2023-03-29T18:58:33.798Z,97835.72
2023-03-29T19:01:03.728Z,97849.16
2023-03-29T19:03:31.782Z,97846.06
2023-03-29T19:05:58.469Z,97848.47
2023-03-29T19:08:26.339Z,97844.09
2023-03-29T19:10:54.049Z,97838.25
2023-03-29T19:13:20.583Z,97837.09
2023-03-29T19:15:47.644Z,97833.41
2023-03-29T19:18:14.389Z,97836.56
2023-03-29T19:20:40.948Z,97841.41
2023-03-29T19:23:07.535Z,97842.63
2023-03-29T19:25:34.196Z,97845.13
2023-03-29T19:28:03.388Z,97851.88
2023-03-29T19:30:30.826Z,97844.75
2023-03-29T19:32:57.320Z,97847.91
2023-03-29T19:35:23.966Z,97855.09
2023-03-29T19:37:50.695Z,97841.28
2023-03-29T19:40:17.365Z,97855.28
2023-03-29T19:42:43.951Z,97844.13
2023-03-29T19:45:10.859Z,97847.31
2023-03-29T19:47:37.534Z,97851.38
2023-03-29T19:50:05.023Z,97846.34
2023-03-29T19:52:31.602Z,97848.38
2023-03-29T19:55:01.385Z,97843.22
2023-03-29T19:57:28.358Z,97838.72
2023-03-29T19:59:55.103Z,97848.56
2023-03-29T20:02:21.687Z,97847.44
2023-03-29T20:04:48.319Z,97852.16
2023-03-29T20:07:14.917Z,97851.03
2023-03-29T20:09:44.570Z,97844.28
2023-03-29T20:12:11.895Z,97852.88
2023-03-29T20:14:40.313Z,97852.75
2023-03-29T20:17:07.410Z,97851.22
2023-03-29T20:19:36.743Z,97838.56
2023-03-29T20:22:04.632Z,97863.03
2023-03-29T20:24:32.710Z,97867.75
2023-03-29T20:26:59.464Z,97859.75
2023-03-29T20:29:26.014Z,97869.38
2023-03-29T20:31:52.736Z,97861.88
2023-03-29T20:34:19.362Z,97857.44
2023-03-29T20:36:46.813Z,97862.25
2023-03-29T20:39:17.712Z,97859.09
2023-03-29T20:41:47.520Z,97865.53
2023-03-29T20:44:16.852Z,97846.56
2023-03-29T20:46:46.523Z,97862.31
2023-03-29T20:49:13.365Z,97871.84
2023-03-29T20:51:42.481Z,97874.28
2023-03-29T20:54:10.061Z,97877.44
2023-03-29T20:56:40.078Z,97869.13
2023-03-29T20:59:10.675Z,97873.03
2023-03-29T21:01:40.543Z,97869.44
2023-03-29T21:04:10.965Z,97874.94
2023-03-29T21:06:39.603Z,97882.06
2023-03-29T21:09:06.251Z,97876.50
2023-03-29T21:11:33.482Z,97882.94
2023-03-29T21:14:00.165Z,97885.81
2023-03-29T21:16:30.053Z,97880.53
2023-03-29T21:18:56.670Z,97888.50
2023-03-29T21:21:23.281Z,97871.09
2023-03-29T21:23:49.867Z,97886.88
2023-03-29T21:26:16.530Z,97895.72
2023-03-29T21:28:43.398Z,97890.97
2023-03-29T21:31:10.060Z,97894.94
2023-03-29T21:33:36.653Z,97890.16
2023-03-29T21:36:03.370Z,97891.81
2023-03-29T21:38:30.167Z,97888.53
2023-03-29T21:40:58.184Z,97894.09
2023-03-29T21:43:24.823Z,97883.34
2023-03-29T21:45:51.539Z,97888.16
2023-03-29T21:48:18.578Z,97873.53
2023-03-29T21:50:50.011Z,97893.38
2023-03-29T21:53:16.842Z,97876.69
2023-03-29T21:55:43.468Z,97891.31
2023-03-29T21:58:10.026Z,97885.72
2023-03-29T22:00:36.718Z,97865.53
2023-03-29T22:03:03.934Z,97880.13
2023-03-29T22:05:30.581Z,97886.19
2023-03-29T22:07:58.744Z,97877.38
2023-03-29T22:10:25.622Z,97876.50
2023-03-29T22:12:52.601Z,97876.84
2023-03-29T22:15:22.484Z,97872.00
2023-03-29T22:17:49.235Z,97868.84
2023-03-29T22:20:18.530Z,97868.53
2023-03-29T22:22:49.773Z,97866.34
2023-03-29T22:25:19.781Z,97864.03
2023-03-29T22:27:48.551Z,97864.78
2023-03-29T22:30:17.092Z,97866.34
2023-03-29T22:32:43.692Z,97871.94
2023-03-29T22:35:10.778Z,97857.66
2023-03-29T22:37:42.046Z,97867.88
2023-03-29T22:40:10.622Z,97869.38
2023-03-29T22:42:37.178Z,97874.94
2023-03-29T22:45:04.750Z,97872.91
2023-03-29T22:47:31.330Z,97868.47
2023-03-29T22:49:57.919Z,97874.81
2023-03-29T22:52:24.522Z,97862.16
2023-03-29T22:54:51.227Z,97865.69
2023-03-29T22:57:17.782Z,97868.84
2023-03-29T22:59:44.417Z,97865.69
2023-03-29T23:02:11.035Z,97871.25
2023-03-29T23:04:38.793Z,97866.91
2023-03-29T23:07:06.308Z,97878.09
2023-03-29T23:09:32.988Z,97877.22
2023-03-29T23:12:01.137Z,97876.50
2023-03-29T23:14:27.889Z,97876.84
2023-03-29T23:16:54.461Z,97865.31
2023-03-29T23:19:21.027Z,97878.09
2023-03-29T23:21:47.594Z,97883.25
2023-03-29T23:24:18.839Z,97881.25
2023-03-29T23:26:45.785Z,97875.66
2023-03-29T23:29:12.561Z,97870.44
2023-03-29T23:31:39.165Z,97868.47
2023-03-29T23:34:05.821Z,97864.50
2023-03-29T23:36:32.396Z,97867.66
2023-03-29T23:38:59.634Z,97862.91
2023-03-29T23:41:28.279Z,97859.66
2023-03-29T23:43:57.647Z,97871.13
2023-03-29T23:46:24.698Z,97857.97
2023-03-29T23:48:51.782Z,97866.25
2023-03-29T23:51:22.877Z,97865.75
2023-03-29T23:53:50.073Z,97866.50
2023-03-29T23:56:16.884Z,97862.13
2023-03-29T23:58:44.420Z,97856.19
